createdAt,value
2017-08-03T00:02:10.881Z,9.20
2017-08-03T00:04:37.232Z,5.17
2017-08-03T00:07:03.631Z,5.60
2017-08-03T00:09:30.048Z,7.60
2017-08-03T00:11:56.403Z,6.03
2017-08-03T00:14:22.718Z,9.17
2017-08-03T00:16:49.811Z,9.20
2017-08-03T00:19:16.208Z,6.40
2017-08-03T00:21:42.567Z,11.40
2017-08-03T00:24:08.963Z,6.10
2017-08-03T00:26:35.338Z,8.90
2017-08-03T00:29:01.715Z,6.10
2017-08-03T00:31:28.170Z,7.00
2017-08-03T00:33:54.583Z,9.17
2017-08-03T00:36:21.692Z,6.23
2017-08-03T00:38:48.061Z,6.70
2017-08-03T00:41:14.443Z,8.50
2017-08-03T00:43:41.533Z,12.30
2017-08-03T00:46:07.963Z,7.70
2017-08-03T00:48:35.079Z,7.60
2017-08-03T00:51:01.479Z,15.20
2017-08-03T00:53:27.855Z,8.70
2017-08-03T00:55:54.239Z,7.10
2017-08-03T00:58:20.621Z,7.03
2017-08-03T01:00:47.015Z,6.57
2017-08-03T01:03:13.421Z,10.70
2017-08-03T01:05:39.766Z,8.30
2017-08-03T01:08:06.163Z,11.10
2017-08-03T01:10:32.559Z,8.30
2017-08-03T01:12:59.678Z,8.20
2017-08-03T01:15:26.067Z,7.10
2017-08-03T01:17:52.751Z,12.03
2017-08-03T01:20:19.818Z,8.47
2017-08-03T01:22:46.210Z,8.70
2017-08-03T01:25:12.610Z,8.57
2017-08-03T01:27:39.015Z,8.50
2017-08-03T01:30:06.479Z,8.17
2017-08-03T01:32:32.860Z,8.03
2017-08-03T01:34:59.230Z,8.20
2017-08-03T01:37:25.615Z,8.23
2017-08-03T01:39:52.019Z,15.17
2017-08-03T01:42:18.400Z,9.00
2017-08-03T01:44:44.796Z,8.70
2017-08-03T01:47:11.235Z,8.80
2017-08-03T01:49:37.641Z,8.23
2017-08-03T01:52:04.075Z,8.40
2017-08-03T01:54:30.491Z,7.97
2017-08-03T01:56:56.855Z,9.50
2017-08-03T01:59:24.047Z,11.20
2017-08-03T02:01:51.251Z,10.50
2017-08-03T02:04:17.622Z,8.33
2017-08-03T02:06:44.007Z,12.83
2017-08-03T02:09:11.179Z,9.30
2017-08-03T02:11:37.655Z,11.27
2017-08-03T02:14:04.024Z,10.50
2017-08-03T02:16:30.413Z,8.73
2017-08-03T02:18:57.564Z,9.77
2017-08-03T02:21:24.999Z,8.77
2017-08-03T02:23:51.499Z,10.17
2017-08-03T02:26:17.907Z,12.47
2017-08-03T02:28:44.346Z,11.93
2017-08-03T02:31:10.740Z,9.50
2017-08-03T02:33:37.134Z,10.60
2017-08-03T02:36:03.587Z,12.63
2017-08-03T02:38:30.681Z,9.60
2017-08-03T02:40:57.047Z,10.00
2017-08-03T02:43:24.162Z,8.77
2017-08-03T02:45:50.567Z,9.80
2017-08-03T02:48:16.931Z,11.60
2017-08-03T02:50:44.034Z,10.23
2017-08-03T02:53:11.183Z,9.50
2017-08-03T02:55:37.585Z,13.80
2017-08-03T02:58:03.973Z,9.17
2017-08-03T03:00:30.376Z,9.40
2017-08-03T03:02:56.808Z,13.37
2017-08-03T03:05:23.219Z,12.20
2017-08-03T03:07:49.594Z,10.83
2017-08-03T03:10:15.979Z,13.17
2017-08-03T03:12:42.387Z,11.33
2017-08-03T03:15:08.774Z,11.20
2017-08-03T03:17:35.139Z,12.07
2017-08-03T03:20:01.523Z,13.33
2017-08-03T03:22:27.947Z,9.23
2017-08-03T03:24:54.343Z,9.90
2017-08-03T03:27:21.135Z,12.00
2017-08-03T03:29:47.527Z,9.97
2017-08-03T03:32:14.639Z,10.13
2017-08-03T03:34:41.024Z,10.70
2017-08-03T03:37:07.420Z,14.23
2017-08-03T03:39:33.813Z,13.37
2017-08-03T03:42:00.211Z,12.30
2017-08-03T03:44:26.575Z,11.90
2017-08-03T03:46:52.919Z,9.53
2017-08-03T03:49:19.340Z,12.60
2017-08-03T03:51:45.707Z,10.40
2017-08-03T03:54:12.843Z,9.07
2017-08-03T03:56:39.247Z,12.03
2017-08-03T03:59:06.356Z,10.97
2017-08-03T04:01:32.767Z,13.70
2017-08-03T04:03:59.164Z,10.03
2017-08-03T04:06:26.604Z,11.20
2017-08-03T04:08:52.984Z,10.53
2017-08-03T04:11:20.115Z,14.30
2017-08-03T04:13:46.554Z,14.97
2017-08-03T04:16:12.920Z,11.50
2017-08-03T04:18:39.298Z,11.43
2017-08-03T04:21:05.735Z,13.20
2017-08-03T04:23:32.099Z,12.43
2017-08-03T04:25:59.294Z,12.53
2017-08-03T04:28:25.687Z,11.07
2017-08-03T04:30:52.072Z,11.70
2017-08-03T04:33:19.205Z,10.90
2017-08-03T04:35:45.564Z,10.57
2017-08-03T04:38:11.983Z,10.37
2017-08-03T04:40:38.386Z,10.10
2017-08-03T04:43:04.773Z,10.47
2017-08-03T04:45:31.884Z,11.67
2017-08-03T04:47:58.263Z,17.40
2017-08-03T04:50:24.635Z,12.70
2017-08-03T04:52:50.996Z,14.13
2017-08-03T04:55:17.411Z,12.83
2017-08-03T04:57:43.779Z,18.20
2017-08-03T05:00:10.899Z,12.60
2017-08-03T05:02:38.021Z,10.93
2017-08-03T05:05:05.151Z,13.20
2017-08-03T05:07:31.524Z,11.90
2017-08-03T05:09:57.936Z,10.90
2017-08-03T05:12:24.363Z,11.70
2017-08-03T05:14:50.791Z,11.67
2017-08-03T05:17:17.215Z,12.13
2017-08-03T05:19:43.631Z,14.53
2017-08-03T05:22:09.998Z,10.93
2017-08-03T05:24:36.378Z,12.50
2017-08-03T05:27:02.845Z,13.10
2017-08-03T05:29:30.323Z,15.40
2017-08-03T05:31:56.768Z,19.60
2017-08-03T05:34:23.183Z,12.27
2017-08-03T05:36:49.558Z,10.13
2017-08-03T05:39:15.955Z,9.83
2017-08-03T05:41:42.381Z,11.00
2017-08-03T05:44:08.736Z,11.13
2017-08-03T05:46:35.110Z,12.03
2017-08-03T05:49:01.536Z,11.27
2017-08-03T05:51:28.992Z,12.00
2017-08-03T05:53:55.408Z,11.47
2017-08-03T05:56:21.808Z,13.80
2017-08-03T05:58:48.183Z,11.33
2017-08-03T06:01:14.544Z,10.47
2017-08-03T06:03:40.943Z,11.70
2017-08-03T06:06:07.334Z,11.90
2017-08-03T06:08:33.803Z,13.13
2017-08-03T06:11:00.223Z,12.67
2017-08-03T06:13:26.629Z,13.40
2017-08-03T06:15:52.955Z,11.83
2017-08-03T06:18:19.387Z,14.33
2017-08-03T06:20:45.791Z,12.27
2017-08-03T06:23:12.188Z,15.27
2017-08-03T06:25:38.624Z,16.33
2017-08-03T06:28:05.049Z,13.60
2017-08-03T06:30:31.526Z,11.50
2017-08-03T06:32:58.976Z,16.20
2017-08-03T06:35:25.342Z,11.53
2017-08-03T06:37:51.679Z,15.90
2017-08-03T06:40:18.099Z,11.87
2017-08-03T06:42:45.238Z,15.60
2017-08-03T06:45:11.623Z,14.20
2017-08-03T06:47:38.759Z,11.43
2017-08-03T06:50:05.149Z,13.47
2017-08-03T06:52:31.556Z,12.77
2017-08-03T06:54:58.049Z,14.40
2017-08-03T06:57:24.487Z,13.67
2017-08-03T06:59:50.871Z,12.90
2017-08-03T07:02:17.610Z,13.57
2017-08-03T07:04:44.023Z,15.50
2017-08-03T07:07:10.402Z,16.83
2017-08-03T07:09:36.759Z,20.80
2017-08-03T07:12:03.179Z,12.57
2017-08-03T07:14:29.551Z,17.40
2017-08-03T07:16:56.957Z,15.60
2017-08-03T07:19:23.387Z,15.40
2017-08-03T07:21:49.730Z,15.60
2017-08-03T07:24:16.155Z,15.63
2017-08-03T07:26:42.523Z,13.33
2017-08-03T07:29:08.891Z,26.03
2017-08-03T07:31:35.243Z,14.67
2017-08-03T07:34:01.603Z,12.90
2017-08-03T07:36:27.975Z,17.17
2017-08-03T07:38:54.380Z,19.20
2017-08-03T07:41:20.815Z,18.80
2017-08-03T07:43:47.152Z,19.83
2017-08-03T07:46:13.547Z,13.80
2017-08-03T07:48:39.919Z,13.87
2017-08-03T07:51:07.051Z,19.80
2017-08-03T07:53:33.443Z,11.90
2017-08-03T07:55:59.831Z,16.53
2017-08-03T07:58:26.215Z,14.53
2017-08-03T08:00:52.579Z,12.83
2017-08-03T08:03:18.991Z,12.63
2017-08-03T08:05:45.378Z,16.10
2017-08-03T08:08:11.739Z,12.70
2017-08-03T08:10:38.099Z,17.40
2017-08-03T08:13:04.431Z,14.73
2017-08-03T08:15:30.843Z,12.23
2017-08-03T08:17:57.219Z,13.37
2017-08-03T08:20:23.549Z,14.30
2017-08-03T08:22:49.922Z,13.40
2017-08-03T08:25:16.308Z,13.57
2017-08-03T08:27:42.731Z,14.60
2017-08-03T08:30:10.123Z,25.17
2017-08-03T08:32:37.239Z,13.90
2017-08-03T08:35:03.589Z,14.83
2017-08-03T08:37:29.943Z,12.97
2017-08-03T08:39:56.384Z,14.63
2017-08-03T08:42:22.727Z,13.63
2017-08-03T08:44:49.115Z,12.17
2017-08-03T08:47:15.493Z,15.20
2017-08-03T08:49:41.859Z,13.90
2017-08-03T08:52:08.964Z,15.20
2017-08-03T08:54:35.311Z,14.73
2017-08-03T08:57:02.432Z,12.87
2017-08-03T08:59:29.547Z,13.33
2017-08-03T09:01:55.927Z,14.37
2017-08-03T09:04:22.267Z,14.00
2017-08-03T09:06:48.615Z,19.47
2017-08-03T09:09:15.014Z,18.53
2017-08-03T09:11:41.391Z,17.00
2017-08-03T09:14:07.747Z,15.63
2017-08-03T09:16:34.087Z,18.10
2017-08-03T09:19:00.462Z,15.40
2017-08-03T09:21:26.879Z,15.90
2017-08-03T09:23:53.260Z,13.50
2017-08-03T09:26:19.631Z,19.87
2017-08-03T09:28:46.034Z,15.70
2017-08-03T09:31:12.486Z,19.77
2017-08-03T09:33:39.692Z,15.90
2017-08-03T09:36:06.057Z,12.60
2017-08-03T09:38:33.164Z,20.33
2017-08-03T09:41:00.307Z,17.00
2017-08-03T09:43:26.666Z,19.87
2017-08-03T09:45:53.003Z,14.00
2017-08-03T09:48:19.355Z,16.60
2017-08-03T09:50:45.750Z,14.47
2017-08-03T09:53:12.051Z,16.23
2017-08-03T09:55:38.306Z,18.83
2017-08-03T09:58:05.330Z,13.60
2017-08-03T10:00:31.622Z,19.40
2017-08-03T10:02:57.882Z,20.20
2017-08-03T10:05:24.190Z,13.33
2017-08-03T10:07:50.486Z,12.90
2017-08-03T10:10:16.774Z,15.57
2017-08-03T10:12:43.054Z,12.73
2017-08-03T10:15:09.347Z,14.30
2017-08-03T10:17:36.734Z,11.73
2017-08-03T10:20:03.017Z,11.77
2017-08-03T10:22:29.293Z,14.03
2017-08-03T10:24:55.554Z,13.97
2017-08-03T10:27:21.943Z,9.70
2017-08-03T10:29:48.218Z,14.50
2017-08-03T10:32:14.490Z,10.93
2017-08-03T10:34:40.817Z,9.80
2017-08-03T10:37:07.090Z,9.70
2017-08-03T10:39:33.330Z,10.43
2017-08-03T10:41:59.586Z,9.60
2017-08-03T10:44:25.870Z,16.80
2017-08-03T10:46:52.130Z,9.30
2017-08-03T10:49:19.150Z,12.37
2017-08-03T10:51:45.423Z,14.10
2017-08-03T10:54:11.693Z,11.97
2017-08-03T10:56:38.730Z,11.77
2017-08-03T10:59:05.010Z,11.13
2017-08-03T11:01:31.284Z,9.90
2017-08-03T11:03:57.581Z,9.40
2017-08-03T11:06:24.113Z,8.33
2017-08-03T11:08:52.206Z,12.13
2017-08-03T11:11:18.499Z,14.73
2017-08-03T11:13:44.773Z,8.47
2017-08-03T11:16:11.035Z,8.60
2017-08-03T11:18:37.310Z,10.80
2017-08-03T11:21:03.593Z,8.97
2017-08-03T11:23:29.858Z,9.63
2017-08-03T11:25:56.130Z,8.97
2017-08-03T11:28:22.446Z,18.07
2017-08-03T11:30:48.706Z,11.90
2017-08-03T11:33:15.023Z,11.90
2017-08-03T11:35:41.298Z,10.30
2017-08-03T11:38:07.555Z,10.97
2017-08-03T11:40:34.914Z,11.40
2017-08-03T11:43:01.170Z,8.77
2017-08-03T11:45:27.422Z,9.47
2017-08-03T11:47:53.718Z,10.50
2017-08-03T11:50:19.983Z,11.40
2017-08-03T11:52:46.258Z,11.40
2017-08-03T11:55:12.554Z,7.30
2017-08-03T11:57:38.810Z,14.50
2017-08-03T12:00:05.074Z,6.90
2017-08-03T12:02:31.406Z,7.00
2017-08-03T12:04:57.667Z,5.40
2017-08-03T12:07:23.926Z,5.57
2017-08-03T12:09:50.218Z,5.00
2017-08-03T12:12:16.475Z,4.07
2017-08-03T12:14:42.742Z,5.60
2017-08-03T12:17:09.067Z,3.90
2017-08-03T12:19:36.066Z,4.70
2017-08-03T12:22:02.344Z,4.93
2017-08-03T12:24:28.634Z,4.47
2017-08-03T12:26:55.090Z,4.00
2017-08-03T12:29:21.356Z,6.93
2017-08-03T12:31:47.650Z,3.17
2017-08-03T12:34:13.929Z,4.10
2017-08-03T12:36:40.190Z,7.17
2017-08-03T12:39:06.490Z,5.90
2017-08-03T12:41:32.736Z,2.20
2017-08-03T12:43:58.994Z,7.70
2017-08-03T12:46:25.294Z,5.70
2017-08-03T12:48:51.554Z,15.20
2017-08-03T12:51:18.842Z,2.70
2017-08-03T12:53:45.147Z,7.97
2017-08-03T12:56:11.398Z,2.40
2017-08-03T12:58:37.655Z,3.07
2017-08-03T13:01:03.958Z,4.43
2017-08-03T13:03:30.198Z,1.93
2017-08-03T13:05:56.442Z,3.53
2017-08-03T13:08:22.726Z,3.80
2017-08-03T13:10:48.996Z,5.13
2017-08-03T13:13:15.255Z,5.53
2017-08-03T13:15:42.629Z,11.33
2017-08-03T13:18:08.878Z,4.67
2017-08-03T13:20:35.134Z,7.10
2017-08-03T13:23:01.423Z,8.03
2017-08-03T13:25:27.674Z,2.03
2017-08-03T13:27:53.922Z,3.93
2017-08-03T13:30:20.236Z,2.63
2017-08-03T13:32:47.235Z,4.47
2017-08-03T13:35:13.523Z,4.40
2017-08-03T13:37:39.807Z,2.60
2017-08-03T13:40:06.805Z,2.60
2017-08-03T13:42:33.119Z,3.10
2017-08-03T13:44:59.430Z,4.83
2017-08-03T13:47:25.703Z,6.33
2017-08-03T13:49:51.970Z,2.50
2017-08-03T13:52:18.278Z,3.53
2017-08-03T13:54:44.542Z,2.90
2017-08-03T13:57:10.795Z,1.97
2017-08-03T13:59:37.098Z,5.60
2017-08-03T14:02:03.361Z,1.80
2017-08-03T14:04:30.358Z,2.90
2017-08-03T14:06:57.406Z,3.50
2017-08-03T14:09:23.647Z,2.50
2017-08-03T14:11:49.938Z,1.27
2017-08-03T14:14:16.206Z,17.67
2017-08-03T14:16:42.462Z,6.30
2017-08-03T14:19:09.446Z,9.83
2017-08-03T14:21:36.790Z,1.63
2017-08-03T14:24:03.086Z,1.40
2017-08-03T14:26:29.345Z,3.27
2017-08-03T14:28:56.380Z,4.30
2017-08-03T14:31:22.646Z,1.77
2017-08-03T14:33:48.910Z,2.73
2017-08-03T14:36:15.274Z,3.00
2017-08-03T14:38:41.518Z,5.00
2017-08-03T14:41:07.772Z,2.37
2017-08-03T14:43:34.062Z,3.67
2017-08-03T14:46:00.326Z,3.93
2017-08-03T14:48:26.581Z,2.03
2017-08-03T14:50:53.642Z,2.50
2017-08-03T14:53:20.627Z,2.53
2017-08-03T14:55:46.896Z,4.53
2017-08-03T14:58:13.206Z,2.10
2017-08-03T15:00:40.202Z,1.63
2017-08-03T15:03:06.459Z,1.67
2017-08-03T15:05:32.764Z,2.00
2017-08-03T15:07:59.011Z,2.03
2017-08-03T15:10:26.322Z,1.90
2017-08-03T15:12:52.626Z,1.23
2017-08-03T15:15:18.880Z,1.73
2017-08-03T15:17:45.163Z,3.10
2017-08-03T15:20:11.453Z,4.80
2017-08-03T15:22:37.706Z,2.90
2017-08-03T15:25:03.985Z,2.40
2017-08-03T15:27:30.286Z,1.23
2017-08-03T15:29:56.530Z,1.30
2017-08-03T15:32:22.779Z,1.63
2017-08-03T15:34:49.106Z,4.70
2017-08-03T15:37:15.378Z,2.30
2017-08-03T15:39:41.666Z,3.90
2017-08-03T15:42:07.946Z,1.50
2017-08-03T15:44:34.203Z,1.13
2017-08-03T15:47:00.451Z,1.50
2017-08-03T15:49:26.729Z,1.97
2017-08-03T15:51:52.974Z,2.13
2017-08-03T15:54:19.230Z,4.00
2017-08-03T15:56:45.515Z,1.00
2017-08-03T15:59:11.765Z,3.73
2017-08-03T16:01:38.047Z,2.07
2017-08-03T16:04:04.339Z,1.67
2017-08-03T16:06:30.613Z,2.23
2017-08-03T16:08:57.612Z,1.43
2017-08-03T16:11:25.659Z,2.70
2017-08-03T16:13:51.920Z,7.10
2017-08-03T16:16:19.998Z,1.37
2017-08-03T16:18:46.302Z,8.80
2017-08-03T16:21:12.566Z,2.10
2017-08-03T16:23:38.850Z,4.73
2017-08-03T16:26:05.185Z,2.50
2017-08-03T16:28:31.447Z,7.13
2017-08-03T16:30:57.683Z,1.80
2017-08-03T16:33:23.983Z,1.57
2017-08-03T16:35:50.246Z,4.47
2017-08-03T16:38:16.535Z,2.43
2017-08-03T16:40:42.832Z,3.03
2017-08-03T16:43:09.090Z,3.63
2017-08-03T16:45:35.371Z,1.60
2017-08-03T16:48:01.659Z,2.17
2017-08-03T16:50:27.971Z,2.40
2017-08-03T16:52:54.218Z,1.73
2017-08-03T16:55:20.536Z,2.00
2017-08-03T16:57:46.787Z,1.40
2017-08-03T17:00:13.042Z,2.13
2017-08-03T17:02:39.359Z,2.20
2017-08-03T17:05:05.614Z,4.03
2017-08-03T17:07:31.883Z,2.30
2017-08-03T17:09:58.197Z,1.90
2017-08-03T17:12:24.450Z,3.57
2017-08-03T17:14:50.740Z,2.00
2017-08-03T17:17:18.018Z,2.20
2017-08-03T17:19:44.277Z,1.70
2017-08-03T17:22:10.546Z,7.07
2017-08-03T17:24:36.850Z,1.63
2017-08-03T17:27:03.114Z,1.73
2017-08-03T17:29:29.358Z,1.47
2017-08-03T17:31:55.638Z,4.70
2017-08-03T17:34:21.883Z,2.97
2017-08-03T17:36:48.138Z,1.10
2017-08-03T17:39:14.515Z,4.53
2017-08-03T17:41:40.758Z,3.73
2017-08-03T17:44:07.033Z,1.67
2017-08-03T17:46:33.343Z,1.20
2017-08-03T17:48:59.620Z,2.30
2017-08-03T17:51:25.899Z,3.33
2017-08-03T17:53:52.196Z,2.87
2017-08-03T17:56:18.443Z,4.03
2017-08-03T17:58:45.687Z,1.47
2017-08-03T18:01:12.318Z,2.30
2017-08-03T18:03:39.302Z,1.73
2017-08-03T18:06:05.578Z,1.90
2017-08-03T18:08:31.874Z,1.83
2017-08-03T18:10:58.878Z,2.20
2017-08-03T18:13:25.150Z,2.83
2017-08-03T18:15:51.451Z,4.47
2017-08-03T18:18:17.701Z,1.30
2017-08-03T18:20:43.972Z,2.87
2017-08-03T18:23:10.289Z,2.10
2017-08-03T18:25:36.545Z,1.10
2017-08-03T18:28:02.807Z,1.10
2017-08-03T18:30:29.294Z,2.13
2017-08-03T18:32:55.614Z,1.43
2017-08-03T18:35:22.864Z,2.03
2017-08-03T18:37:49.349Z,1.63
2017-08-03T18:40:16.153Z,1.47
2017-08-03T18:42:43.053Z,1.90
2017-08-03T18:45:10.156Z,3.63
2017-08-03T18:47:37.099Z,2.60
2017-08-03T18:50:04.802Z,3.00
2017-08-03T18:52:32.046Z,1.20
2017-08-03T18:54:59.823Z,5.73
2017-08-03T18:57:26.799Z,1.40
2017-08-03T18:59:53.906Z,2.10
2017-08-03T19:02:20.833Z,1.30
2017-08-03T19:04:48.150Z,2.30
2017-08-03T19:07:15.798Z,1.83
2017-08-03T19:09:43.309Z,1.70
2017-08-03T19:12:10.720Z,1.10
2017-08-03T19:14:38.177Z,1.80
2017-08-03T19:17:06.541Z,1.47
2017-08-03T19:19:34.054Z,3.50
2017-08-03T19:22:01.995Z,2.33
2017-08-03T19:24:29.687Z,2.00
2017-08-03T19:26:58.065Z,1.57
2017-08-03T19:29:25.826Z,2.10
2017-08-03T19:31:53.506Z,2.27
2017-08-03T19:34:21.256Z,3.53
2017-08-03T19:36:49.145Z,1.57
2017-08-03T19:39:16.893Z,1.90
2017-08-03T19:41:44.692Z,1.27
2017-08-03T19:44:12.527Z,2.03
2017-08-03T19:46:40.206Z,2.10
2017-08-03T19:49:07.915Z,1.60
2017-08-03T19:51:35.827Z,1.40
2017-08-03T19:54:03.532Z,2.23
2017-08-03T19:56:31.305Z,1.70
2017-08-03T19:58:59.239Z,1.50
2017-08-03T20:01:26.980Z,1.43
2017-08-03T20:03:54.694Z,1.83
2017-08-03T20:06:24.679Z,3.00
2017-08-03T20:09:04.100Z,1.30
2017-08-03T20:11:32.135Z,1.20
2017-08-03T20:13:59.857Z,2.20
2017-08-03T20:16:27.689Z,2.07
2017-08-03T20:18:55.652Z,3.00
2017-08-03T20:21:23.502Z,2.50
2017-08-03T20:23:51.293Z,3.73
2017-08-03T20:26:19.951Z,1.53
2017-08-03T20:28:48.671Z,1.63
2017-08-03T20:31:16.370Z,2.60
2017-08-03T20:33:44.177Z,2.00
2017-08-03T20:36:11.809Z,1.80
2017-08-03T20:38:40.288Z,1.67
2017-08-03T20:41:08.197Z,2.10
2017-08-03T20:43:36.046Z,4.97
2017-08-03T20:46:03.629Z,2.30
2017-08-03T20:48:31.566Z,4.47
2017-08-03T20:50:59.261Z,3.43
2017-08-03T20:53:26.918Z,1.90
2017-08-03T20:55:54.863Z,3.17
2017-08-03T20:58:22.639Z,2.47
2017-08-03T21:00:49.671Z,2.23
2017-08-03T21:03:16.871Z,4.57
2017-08-03T21:05:43.743Z,2.17
2017-08-03T21:08:11.366Z,3.67
2017-08-03T21:10:37.843Z,3.13
2017-08-03T21:13:04.122Z,3.20
2017-08-03T21:15:30.531Z,1.57
2017-08-03T21:17:56.960Z,1.70
2017-08-03T21:20:23.325Z,4.10
2017-08-03T21:22:49.607Z,3.17
2017-08-03T21:25:16.856Z,3.43
2017-08-03T21:27:43.192Z,2.97
2017-08-03T21:30:09.592Z,2.10
2017-08-03T21:32:35.918Z,5.10
2017-08-03T21:35:02.234Z,1.60
2017-08-03T21:37:28.562Z,1.93
2017-08-03T21:39:54.867Z,3.17
2017-08-03T21:42:21.167Z,2.60
2017-08-03T21:44:47.435Z,3.23
2017-08-03T21:47:15.107Z,3.00
2017-08-03T21:49:43.210Z,3.30
2017-08-03T21:52:09.494Z,3.23
2017-08-03T21:54:35.799Z,3.53
2017-08-03T21:57:02.802Z,1.87
2017-08-03T21:59:29.066Z,2.10
2017-08-03T22:01:55.391Z,3.70
2017-08-03T22:04:21.656Z,3.70
2017-08-03T22:06:47.926Z,5.77
2017-08-03T22:09:14.234Z,3.73
2017-08-03T22:11:40.494Z,2.93
2017-08-03T22:14:06.762Z,4.03
2017-08-03T22:16:33.062Z,5.03
2017-08-03T22:18:59.338Z,4.33
2017-08-03T22:21:25.574Z,4.07
2017-08-03T22:23:51.870Z,2.53
2017-08-03T22:26:18.130Z,5.07
2017-08-03T22:28:44.386Z,3.40
2017-08-03T22:31:11.567Z,2.47
2017-08-03T22:33:37.810Z,3.90
2017-08-03T22:36:04.078Z,3.43
2017-08-03T22:38:30.362Z,3.67
2017-08-03T22:40:56.630Z,4.00
2017-08-03T22:43:22.898Z,10.30
2017-08-03T22:45:49.171Z,3.20
2017-08-03T22:48:15.434Z,1.53
2017-08-03T22:50:41.695Z,2.63
2017-08-03T22:53:07.986Z,5.20
2017-08-03T22:55:34.266Z,1.43
2017-08-03T22:58:01.286Z,2.40
2017-08-03T23:00:27.638Z,4.07
2017-08-03T23:02:53.898Z,3.40
2017-08-03T23:05:20.158Z,5.00
2017-08-03T23:07:46.446Z,2.57
2017-08-03T23:10:12.710Z,2.30
2017-08-03T23:12:38.979Z,3.90
2017-08-03T23:15:06.375Z,2.17
2017-08-03T23:17:32.631Z,1.90
2017-08-03T23:19:59.636Z,11.63
2017-08-03T23:22:25.922Z,2.83
2017-08-03T23:24:52.182Z,3.00
2017-08-03T23:27:18.435Z,2.10
2017-08-03T23:29:44.711Z,1.70
2017-08-03T23:32:10.967Z,2.60
2017-08-03T23:34:37.257Z,2.43
2017-08-03T23:37:03.531Z,2.13
2017-08-03T23:39:29.794Z,2.53
2017-08-03T23:41:56.097Z,6.13
2017-08-03T23:44:22.379Z,2.13
2017-08-03T23:46:48.638Z,6.03
2017-08-03T23:49:14.906Z,2.77
2017-08-03T23:51:41.942Z,2.90
2017-08-03T23:54:08.226Z,1.83
2017-08-03T23:56:34.490Z,3.33
2017-08-03T23:59:00.770Z,3.40
